Time;durP1;ratioP1;P1;durP2;ratioP2;P2;SDS_P1;SDS_P2;PMS_P1;PMS_P2;Temp;Humidity;BMP_temperature;BMP_pressure;BME280_temperature;BME280_humidity;BME280_pressure;Samples;Min_cycle;Max_cycle;Signal;HPM_P1;HPM_P2
2022/07/01 00:00:52;;;;;;;13.43;8.32;;;;;;;-148.88;100.00;75192.28;4993304;28;20037;-74
2022/07/01 00:03:17;;;;;;;11.98;8.32;;;;;;;-148.88;100.00;75210.56;4993432;28;20054;-74
2022/07/01 00:05:42;;;;;;;9.98;7.32;;;;;;;-148.88;100.00;75192.28;4975912;28;20026;-74
2022/07/01 00:08:08;;;;;;;9.13;7.10;;;;;;;-148.88;100.00;75192.28;5002370;23;20039;-75
2022/07/01 00:10:33;;;;;;;9.43;6.70;;;;;;;-148.88;100.00;75192.28;4975739;28;20381;-76
2022/07/01 00:12:58;;;;;;;10.15;7.78;;;;;;;-148.88;100.00;75208.53;4995684;28;20472;-76
2022/07/01 00:15:24;;;;;;;10.48;7.88;;;;;;;-148.88;100.00;75202.44;4997385;28;20041;-76
2022/07/01 00:17:49;;;;;;;14.40;8.27;;;;;;;-148.88;100.00;75208.53;4997345;28;20468;-76
2022/07/01 00:20:15;;;;;;;8.27;7.00;;;;;;;-148.88;100.00;75222.75;4997427;28;20126;-77
2022/07/01 00:22:41;;;;;;;9.18;7.22;;;;;;;-148.88;100.00;75228.84;4997019;28;20030;-77
2022/07/01 00:25:07;;;;;;;7.55;6.20;;;;;;;-148.88;100.00;75222.75;4997551;28;20034;-77
2022/07/01 00:27:35;;;;;;;8.52;5.88;;;;;;;-148.88;100.00;75228.84;4997061;28;20116;-77
2022/07/01 00:30:01;;;;;;;8.38;5.50;;;;;;;-148.88;100.00;75249.16;4996623;28;20034;-76
2022/07/01 00:32:26;;;;;;;8.75;6.30;;;;;;;-148.88;100.00;75255.25;4996589;28;20037;-77
2022/07/01 00:34:51;;;;;;;8.50;6.63;;;;;;;-148.88;100.00;75259.31;4996521;28;20395;-77
2022/07/01 00:37:17;;;;;;;8.95;7.00;;;;;;;-148.88;100.00;75259.31;4996945;28;20101;-77
2022/07/01 00:39:42;;;;;;;9.30;6.38;;;;;;;-148.88;100.00;75253.22;4996309;28;20542;-77
2022/07/01 00:42:07;;;;;;;8.82;6.53;;;;;;;-148.88;100.00;75269.47;4978749;28;20029;-76
2022/07/01 00:44:32;;;;;;;9.45;6.50;;;;;;;-148.88;100.00;75273.53;4996772;28;20387;-77
2022/07/01 00:47:03;;;;;;;9.23;6.35;;;;;;;-148.88;100.00;75275.56;4996429;28;20034;-76
2022/07/01 00:49:29;;;;;;;8.90;6.03;;;;;;;-148.88;100.00;75281.66;4996570;28;20084;-76
2022/07/01 00:51:54;;;;;;;8.20;5.50;;;;;;;-148.88;100.00;75269.47;4996354;28;20030;-76
2022/07/01 00:54:21;;;;;;;6.15;4.80;;;;;;;-148.88;100.00;75285.69;4996653;28;20081;-74
2022/07/01 00:56:47;;;;;;;7.93;4.30;;;;;;;-148.88;100.00;75275.56;4996943;28;20037;-77
2022/07/01 00:59:13;;;;;;;9.77;4.40;;;;;;;-148.88;100.00;75273.53;4979026;28;20100;-76
2022/07/01 01:01:39;;;;;;;9.77;4.47;;;;;;;-148.88;100.00;75283.66;4996282;28;20455;-77
2022/07/01 01:04:04;;;;;;;5.10;4.03;;;;;;;-148.88;100.00;75303.97;4994715;28;20121;-76
2022/07/01 01:06:30;;;;;;;6.18;4.07;;;;;;;-148.88;100.00;75287.72;4995932;28;20105;-76
2022/07/01 01:08:55;;;;;;;6.60;3.40;;;;;;;-148.88;100.00;75297.88;4996076;28;20258;-76
2022/07/01 01:11:20;;;;;;;4.50;3.42;;;;;;;-148.88;100.00;75301.94;4997668;28;20028;-76
2022/07/01 01:13:46;;;;;;;6.22;3.42;;;;;;;-148.88;100.00;75318.19;4997385;28;20137;-76
2022/07/01 01:16:19;;;;;;;7.22;3.10;;;;;;;-148.88;100.00;75314.13;4995762;28;20022;-76
2022/07/01 01:18:45;;;;;;;5.88;3.53;;;;;;;-148.88;100.00;75293.81;4996230;28;20049;-76
2022/07/01 01:21:11;;;;;;;6.32;3.45;;;;;;;-148.88;100.00;75297.88;4996062;28;20479;-76
2022/07/01 01:23:36;;;;;;;5.93;3.72;;;;;;;-148.88;100.00;75293.81;4995788;28;20180;-76
2022/07/01 01:26:02;;;;;;;5.18;3.85;;;;;;;-148.88;100.00;75322.25;4997257;28;20041;-76
2022/07/01 01:28:28;;;;;;;8.00;3.75;;;;;;;-148.88;100.00;75318.19;4978255;28;20034;-76
2022/07/01 01:30:53;;;;;;;7.93;4.05;;;;;;;-148.88;100.00;75318.19;4995594;28;20116;-76
2022/07/01 01:33:18;;;;;;;5.68;4.10;;;;;;;-148.88;100.00;75314.13;4995640;28;20391;-76
2022/07/01 01:35:44;;;;;;;8.50;4.22;;;;;;;-148.88;100.00;75312.09;4996367;28;20028;-76
2022/07/01 01:38:09;;;;;;;7.68;4.10;;;;;;;-148.88;100.00;75316.16;4995894;28;20026;-76
2022/07/01 01:40:34;;;;;;;5.88;3.58;;;;;;;-148.88;100.00;75330.38;4997773;28;20018;-76
2022/07/01 01:42:59;;;;;;;6.97;3.63;;;;;;;-148.88;100.00;75322.25;4995933;28;20030;-76
2022/07/01 01:45:25;;;;;;;6.85;3.70;;;;;;;-148.88;100.00;75324.28;4978348;28;20034;-76
2022/07/01 01:47:50;;;;;;;4.30;3.35;;;;;;;-148.88;100.00;75338.50;4995841;28;20026;-76
2022/07/01 01:50:16;;;;;;;7.70;4.22;;;;;;;-148.88;100.00;75346.63;4995039;28;20033;-76
2022/07/01 01:52:43;;;;;;;6.68;3.60;;;;;;;-148.88;100.00;75342.56;4995228;28;20033;-76
2022/07/01 01:55:09;;;;;;;5.55;3.58;;;;;;;-148.88;100.00;75336.47;4995244;28;20026;-76
2022/07/01 01:57:34;;;;;;;6.72;3.70;;;;;;;-148.88;100.00;75336.47;4995378;28;20023;-76
2022/07/01 01:59:59;;;;;;;6.00;3.65;;;;;;;-148.88;100.00;75346.63;4995041;28;20476;-76
2022/07/01 02:02:24;;;;;;;6.57;3.60;;;;;;;-148.88;100.00;75344.59;4995537;28;20392;-76
2022/07/01 02:04:51;;;;;;;6.40;3.90;;;;;;;-148.88;100.00;75330.38;4995054;28;20068;-76
2022/07/01 02:07:16;;;;;;;5.90;4.18;;;;;;;-148.88;100.00;75346.63;4994533;28;20042;-76
2022/07/01 02:09:42;;;;;;;7.85;4.40;;;;;;;-148.88;100.00;75342.56;4994638;28;20034;-76
2022/07/01 02:12:07;;;;;;;7.57;4.85;;;;;;;-148.88;100.00;75373.03;4995049;28;20372;-76
2022/07/01 02:14:32;;;;;;;8.05;4.88;;;;;;;-148.88;100.00;75362.88;4994699;28;20058;-76
2022/07/01 02:16:58;;;;;;;8.32;5.35;;;;;;;-148.88;100.00;75368.97;4994855;28;20030;-76
2022/07/01 02:19:23;;;;;;;7.18;4.50;;;;;;;-148.88;100.00;75379.13;4996762;28;20022;-76
2022/07/01 02:21:50;;;;;;;7.93;5.15;;;;;;;-148.88;100.00;75381.16;4994501;28;20472;-76
2022/07/01 02:24:16;;;;;;;6.88;4.38;;;;;;;-148.88;100.00;75379.13;4994748;28;20054;-76
2022/07/01 02:26:42;;;;;;;7.45;4.50;;;;;;;-148.88;100.00;75389.28;4994454;28;20053;-76
2022/07/01 02:29:07;;;;;;;6.50;4.70;;;;;;;-148.88;100.00;75391.31;4976826;28;20022;-75
2022/07/01 02:31:32;;;;;;;6.65;4.85;;;;;;;-148.88;100.00;75395.38;4994660;28;20084;-76
2022/07/01 02:33:59;;;;;;;7.03;4.68;;;;;;;-148.88;100.00;75403.50;4994590;28;20050;-76
2022/07/01 02:36:24;;;;;;;6.60;4.60;;;;;;;-148.88;100.00;75403.50;4976491;28;20022;-75
2022/07/01 02:38:49;;;;;;;7.88;5.15;;;;;;;-148.88;100.00;75403.50;4994091;28;20030;-75
2022/07/01 02:41:14;;;;;;;7.80;4.60;;;;;;;-148.88;100.00;75409.59;4994033;28;20410;-75
2022/07/01 02:43:40;;;;;;;6.55;4.95;;;;;;;-148.88;100.00;75407.56;4996096;28;20022;-76
2022/07/01 02:46:05;;;;;;;8.68;5.70;;;;;;;-148.88;100.00;75405.53;4994056;28;20472;-75
2022/07/01 02:48:30;;;;;;;7.63;5.18;;;;;;;-148.88;100.00;75409.59;4993970;28;20026;-76
2022/07/01 02:50:56;;;;;;;8.95;5.95;;;;;;;-148.88;100.00;75411.63;4994216;28;20443;-75
2022/07/01 02:53:21;;;;;;;10.65;5.63;;;;;;;-148.88;100.00;75415.69;4993960;28;20030;-76
2022/07/01 02:55:46;;;;;;;8.80;5.97;;;;;;;-148.88;100.00;75429.91;4994082;28;20403;-76
2022/07/01 02:58:12;;;;;;;8.43;5.43;;;;;;;-148.88;100.00;75423.81;4977929;28;20475;-76
2022/07/01 03:00:37;;;;;;;8.75;5.70;;;;;;;-148.88;100.00;75436.00;4993768;28;20097;-75
2022/07/01 03:03:02;;;;;;;7.40;5.93;;;;;;;-148.88;100.00;75448.19;4976374;28;20172;-76
2022/07/01 03:05:28;;;;;;;7.72;5.43;;;;;;;-148.88;100.00;75436.00;4994151;28;20490;-76
2022/07/01 03:07:53;;;;;;;7.65;5.03;;;;;;;-148.88;100.00;75458.34;4993671;28;20453;-76
2022/07/01 03:10:19;;;;;;;7.55;5.50;;;;;;;-148.88;100.00;75460.38;4976157;28;20034;-76
2022/07/01 03:12:44;;;;;;;7.57;5.03;;;;;;;-148.88;100.00;75482.72;4993786;28;20097;-76
2022/07/01 03:15:12;;;;;;;9.02;5.35;;;;;;;-148.88;100.00;75472.56;4993615;28;20030;-76
2022/07/01 03:17:39;;;;;;;8.63;5.43;;;;;;;-148.88;100.00;75480.69;4993971;28;20026;-76
2022/07/01 03:20:10;;;;;;;7.55;5.88;;;;;;;-148.88;100.00;75476.63;4992076;28;20098;-76
2022/07/01 03:22:37;;;;;;;7.93;5.80;;;;;;;-148.88;100.00;75478.66;4993376;28;20134;-76
2022/07/01 03:25:03;;;;;;;8.82;6.53;;;;;;;-148.88;100.00;75464.44;4975860;28;20022;-76
2022/07/01 03:27:29;;;;;;;9.52;6.95;;;;;;;-148.88;100.00;75488.81;4975662;28;20026;-76
2022/07/01 03:29:55;;;;;;;8.88;7.78;;;;;;;-148.88;100.00;75496.94;4993034;28;20421;-76
2022/07/01 03:32:20;;;;;;;11.27;8.98;;;;;;;-148.88;100.00;75488.81;4993558;28;20026;-76
2022/07/01 03:34:47;;;;;;;11.23;8.68;;;;;;;-148.88;100.00;75484.75;4993755;28;20376;-77
2022/07/01 03:37:14;;;;;;;10.73;8.90;;;;;;;-148.88;100.00;75488.81;4993554;28;20041;-76
2022/07/01 03:39:40;;;;;;;14.60;9.77;;;;;;;-148.88;100.00;75486.78;4992943;28;20034;-76
2022/07/01 03:42:06;;;;;;;12.55;10.50;;;;;;;-148.88;100.00;75484.75;4993083;28;20491;-76
2022/07/01 03:44:32;;;;;;;13.45;10.27;;;;;;;-148.88;100.00;75482.72;4992950;28;20058;-76
2022/07/01 03:46:58;;;;;;;14.48;10.70;;;;;;;-148.88;100.00;75480.69;4993771;28;20022;-76
2022/07/01 03:49:23;;;;;;;14.93;11.20;;;;;;;-148.88;100.00;75474.59;4995539;28;20491;-76
2022/07/01 03:51:49;;;;;;;14.82;10.60;;;;;;;-148.88;100.00;75480.69;4996824;28;20369;-76
2022/07/01 03:54:30;;;;;;;15.02;10.80;;;;;;;-148.88;100.00;75480.69;4997563;28;20476;-76
2022/07/01 03:57:00;;;;;;;13.98;10.18;;;;;;;-148.88;100.00;75488.81;4997610;28;20101;-77
2022/07/01 03:59:27;;;;;;;14.15;9.88;;;;;;;-148.88;100.00;75470.53;4997108;28;20109;-77
2022/07/01 04:01:54;;;;;;;14.70;10.98;;;;;;;-148.88;100.00;75482.72;4996910;28;20095;-77
2022/07/01 04:04:19;;;;;;;15.00;11.02;;;;;;;-148.88;100.00;75488.81;4996841;28;20054;-77
2022/07/01 04:06:46;;;;;;;16.10;10.93;;;;;;;-148.88;100.00;75492.88;4995442;28;20103;-77
2022/07/01 04:09:14;;;;;;;15.95;11.88;;;;;;;-148.88;100.00;75484.75;4979783;28;20488;-77
2022/07/01 04:11:40;;;;;;;17.02;11.80;;;;;;;-148.88;100.00;75486.78;4996687;28;20030;-77
2022/07/01 04:14:05;;;;;;;14.32;10.82;;;;;;;-148.88;100.00;75470.53;4997066;28;20029;-77
2022/07/01 04:16:31;;;;;;;14.23;10.82;;;;;;;-148.88;100.00;75488.81;4996850;28;20399;-77
2022/07/01 04:18:56;;;;;;;14.30;11.02;;;;;;;-148.88;100.00;75484.75;4996954;28;20105;-77
2022/07/01 04:24:06;;;;;;;16.65;11.27;;;;;;;-148.88;100.00;75501.00;4996774;28;20037;-78
2022/07/01 04:26:32;;;;;;;14.38;11.50;;;;;;;-148.88;100.00;75505.06;4979312;28;20022;-77
2022/07/01 04:28:58;;;;;;;17.58;12.10;;;;;;;-148.88;100.00;75509.13;4997352;28;20029;-77
2022/07/01 04:31:23;;;;;;;15.43;12.00;;;;;;;-148.88;100.00;75501.00;4997113;28;20042;-77
2022/07/01 04:33:49;;;;;;;16.38;12.65;;;;;;;-148.88;100.00;75505.06;4979501;28;20084;-77
2022/07/01 04:36:15;;;;;;;16.60;12.60;;;;;;;-148.88;100.00;75507.09;4996568;28;20034;-77
2022/07/01 04:38:41;;;;;;;19.20;13.85;;;;;;;-148.88;100.00;75494.91;4996585;28;20085;-77
2022/07/01 04:43:50;;;;;;;;;;;;;;;-148.88;100.00;75486.78;4997167;28;20121;-77
2022/07/01 04:46:15;;;;;;;20.33;15.30;;;;;;;-148.88;100.00;75480.69;4996290;28;19945;-77
2022/07/01 04:48:40;;;;;;;20.83;15.63;;;;;;;-148.88;100.00;75474.59;4978646;28;20411;-77
2022/07/01 04:51:06;;;;;;;22.05;16.20;;;;;;;-148.88;100.00;75482.72;4978575;28;20054;-77
2022/07/01 04:53:32;;;;;;;24.45;17.45;;;;;;;-148.88;100.00;75476.63;4995991;28;20413;-77
2022/07/01 04:55:57;;;;;;;24.73;17.40;;;;;;;-148.88;100.00;75468.50;4996581;28;20057;-78
2022/07/01 04:58:22;;;;;;;24.05;17.42;;;;;;;-148.88;100.00;75444.13;4996523;28;20050;-77
2022/07/01 05:00:48;;;;;;;24.00;18.35;;;;;;;-148.88;100.00;75450.22;4996449;28;20027;-77
2022/07/01 05:03:14;;;;;;;23.58;18.00;;;;;;;-148.88;100.00;75464.44;4996571;28;20069;-76
2022/07/01 05:05:39;;;;;;;23.27;17.67;;;;;;;-148.88;100.00;75488.81;4997333;28;20026;-78
2022/07/01 05:08:04;;;;;;;25.38;18.85;;;;;;;-148.88;100.00;75480.69;4979499;28;20114;-78
2022/07/01 05:10:30;;;;;;;20.92;16.90;;;;;;;-148.88;100.00;75501.00;4997214;28;20029;-75
2022/07/01 05:12:55;;;;;;;19.83;16.60;;;;;;;-148.88;100.00;75513.19;4996134;28;20029;-77
2022/07/01 05:15:20;;;;;;;20.88;16.52;;;;;;;-148.88;100.00;75501.00;4996955;28;20046;-77
2022/07/01 05:23:13;;;;;;;17.38;13.30;;;;;;;-148.88;100.00;75517.25;4998246;28;19921;-77
2022/07/01 05:25:39;;;;;;;15.45;13.52;;;;;;;-148.88;100.00;75523.34;4997685;28;20027;-76
2022/07/01 05:28:04;;;;;;;17.63;13.70;;;;;;;-148.88;100.00;75527.41;4997619;28;20504;-77
2022/07/01 05:30:29;;;;;;;19.50;14.50;;;;;;;-148.88;100.00;75533.50;4996633;28;20037;-78
2022/07/01 05:32:55;;;;;;;18.77;14.48;;;;;;;-148.88;100.00;75537.56;4997639;28;20026;-77
2022/07/01 05:35:20;;;;;;;20.67;15.65;;;;;;;-148.88;100.00;75527.41;4996810;28;20109;-78
2022/07/01 05:37:45;;;;;;;19.08;15.00;;;;;;;-148.88;100.00;75517.25;4980710;28;20026;-78
2022/07/01 05:40:11;;;;;;;18.77;15.25;;;;;;;-148.88;100.00;75521.31;4997854;28;20058;-78
2022/07/01 05:42:37;;;;;;;19.05;15.57;;;;;;;-148.88;100.00;75521.31;4997766;28;20023;-78
2022/07/01 05:45:02;;;;;;;21.75;15.50;;;;;;;-148.88;100.00;75529.44;4980683;28;20018;-79
2022/07/01 05:47:28;;;;;;;21.30;16.15;;;;;;;-148.88;100.00;75521.31;4996577;28;20113;-78
2022/07/01 05:49:53;;;;;;;21.27;16.25;;;;;;;-148.88;100.00;75527.41;4997370;28;20057;-78
2022/07/01 05:52:18;;;;;;;25.27;17.63;;;;;;;-148.88;100.00;75533.50;4997599;28;20038;-78
2022/07/01 05:54:43;;;;;;;21.73;16.98;;;;;;;-148.88;100.00;75525.38;4996281;28;20030;-77
2022/07/01 05:57:09;;;;;;;23.77;17.90;;;;;;;-148.88;100.00;75533.50;4996005;28;20529;-78
2022/07/01 05:59:35;;;;;;;32.00;18.85;;;;;;;-148.88;100.00;75529.44;4978803;28;20022;-78
2022/07/01 06:02:00;;;;;;;21.42;17.23;;;;;;;-148.88;100.00;75521.31;4996435;28;20046;-78
2022/07/01 06:04:25;;;;;;;23.33;19.10;;;;;;;-148.88;100.00;75519.28;4996704;28;20018;-78
2022/07/01 06:06:51;;;;;;;28.25;19.10;;;;;;;-148.88;100.00;75515.22;4996736;28;20026;-77
2022/07/01 06:09:16;;;;;;;22.50;18.08;;;;;;;-148.88;100.00;75517.25;5005203;23;20138;-84
2022/07/01 06:11:42;;;;;;;25.35;19.10;;;;;;;-148.88;100.00;75511.16;4974492;28;20110;-84
2022/07/01 06:14:07;;;;;;;23.33;19.13;;;;;;;-148.88;100.00;75525.38;4975086;28;20027;-83
2022/07/01 06:16:33;;;;;;;24.60;19.27;;;;;;;-148.88;100.00;75525.38;4974667;28;20027;-84
2022/07/01 06:18:58;;;;;;;24.98;19.60;;;;;;;-148.88;100.00;75523.34;4983450;28;20030;-84
2022/07/01 06:21:24;;;;;;;23.25;19.67;;;;;;;-148.88;100.00;75511.16;4976789;28;20029;-84
2022/07/01 06:23:49;;;;;;;24.63;19.20;;;;;;;-148.88;100.00;75519.28;4992711;28;20113;-83
2022/07/01 06:26:14;;;;;;;23.90;19.23;;;;;;;-148.88;100.00;75507.09;4976576;28;20092;-84
2022/07/01 06:28:40;;;;;;;24.23;18.67;;;;;;;-148.88;100.00;75513.19;4992820;28;20037;-82
2022/07/01 06:31:06;;;;;;;25.58;19.60;;;;;;;-148.88;100.00;75501.00;4976483;28;20030;-82
2022/07/01 06:33:31;;;;;;;25.30;19.15;;;;;;;-148.88;100.00;75494.91;4994087;28;20031;-82
2022/07/01 06:35:57;;;;;;;25.50;19.45;;;;;;;-148.88;100.00;75505.06;4992732;28;20026;-82
2022/07/01 06:38:24;;;;;;;23.58;17.83;;;;;;;-148.88;100.00;75515.22;4976638;28;20081;-82
2022/07/01 06:43:34;;;;;;;24.30;17.90;;;;;;;-148.88;100.00;75494.91;4994108;28;20029;-82
2022/07/01 06:46:00;;;;;;;23.25;17.90;;;;;;;-148.88;100.00;75482.72;4993609;28;20024;-82
2022/07/01 06:48:25;;;;;;;26.17;19.20;;;;;;;-148.88;100.00;75480.69;4992311;28;20038;-83
2022/07/01 06:50:51;;;;;;;24.60;18.17;;;;;;;-148.88;100.00;75490.84;4992123;28;20034;-83
2022/07/01 06:53:16;;;;;;;22.88;17.65;;;;;;;-148.88;100.00;75503.03;4992192;28;20022;-82
2022/07/01 06:55:41;;;;;;;25.52;17.95;;;;;;;-148.88;100.00;75505.06;4975904;28;20027;-82
2022/07/01 06:58:09;;;;;;;22.90;17.48;;;;;;;-148.88;100.00;75488.81;4977323;28;20049;-83
2022/07/01 07:00:34;;;;;;;24.42;18.10;;;;;;;-148.88;100.00;75501.00;4975727;28;20045;-82
2022/07/01 07:03:00;;;;;;;24.10;18.45;;;;;;;-148.88;100.00;75498.97;4992422;28;20023;-82
2022/07/01 07:05:25;;;;;;;25.25;18.13;;;;;;;-148.88;100.00;75494.91;4993775;28;20026;-83
2022/07/01 07:07:50;;;;;;;29.15;19.85;;;;;;;-148.88;100.00;75498.97;4993569;28;20164;-83
2022/07/01 07:10:16;;;;;;;28.60;20.08;;;;;;;-148.88;100.00;75505.06;4956996;28;1038050;-82
2022/07/01 07:12:41;;;;;;;27.83;20.25;;;;;;;-148.88;100.00;75492.88;4994077;28;20113;-83
2022/07/01 07:15:07;;;;;;;29.85;20.60;;;;;;;-148.88;100.00;75503.03;4993909;28;20026;-82
2022/07/01 07:17:32;;;;;;;30.60;21.45;;;;;;;-148.88;100.00;75521.31;4994291;28;20030;-83
2022/07/01 07:19:57;;;;;;;29.63;20.88;;;;;;;-148.88;100.00;75519.28;4992961;28;20057;-83
2022/07/01 07:22:23;;;;;;;28.13;20.95;;;;;;;-148.88;100.00;75513.19;4992802;28;20062;-83
2022/07/01 07:24:48;;;;;;;29.75;21.02;;;;;;;-148.88;100.00;75529.44;4976800;28;20145;-83
2022/07/01 07:27:14;;;;;;;30.35;21.38;;;;;;;-148.88;100.00;75517.25;4976473;28;20076;-83
2022/07/01 07:29:39;;;;;;;31.30;21.15;;;;;;;-148.88;100.00;75503.03;4992618;28;20030;-84
2022/07/01 07:32:05;;;;;;;29.67;22.45;;;;;;;-148.88;100.00;75505.06;4993925;28;20534;-83
2022/07/01 07:34:30;;;;;;;33.40;23.85;;;;;;;-148.88;100.00;75509.13;4994045;28;20072;-83
2022/07/01 07:36:55;;;;;;;29.83;22.50;;;;;;;-148.88;100.00;75509.13;4993942;28;20121;-83
2022/07/01 07:39:20;;;;;;;31.60;22.50;;;;;;;-148.88;100.00;75501.00;4992552;28;20042;-83
2022/07/01 07:41:46;;;;;;;33.30;23.95;;;;;;;-148.88;100.00;75476.63;4993736;28;20022;-83
2022/07/01 07:44:11;;;;;;;33.25;24.27;;;;;;;-148.88;100.00;75464.44;4994330;28;20034;-83
2022/07/01 07:46:37;;;;;;;31.52;22.70;;;;;;;-148.88;100.00;75488.81;4977915;28;20022;-84
2022/07/01 07:49:02;;;;;;;34.72;24.85;;;;;;;-148.88;100.00;75480.69;4993815;28;20022;-83
2022/07/01 07:51:27;;;;;;;29.00;21.90;;;;;;;-148.88;100.00;75456.31;4992338;28;20030;-83
2022/07/01 07:53:53;;;;;;;28.25;22.65;;;;;;;-148.88;99.85;75466.47;5007168;28;20010;-83
2022/07/01 07:56:18;;;;;;;31.05;22.33;;;;;;;-148.88;99.86;75456.31;5018100;28;20077;-83
2022/07/01 07:58:43;;;;;;;26.38;20.27;;;;;;;-148.88;99.06;75470.53;5017190;28;20030;-83
2022/07/01 08:01:09;;;;;;;24.52;19.38;;;;;;;-148.88;97.73;75480.69;4997532;28;20030;-84
2022/07/01 08:03:34;;;;;;;23.25;18.98;;;;;;;-148.88;96.96;75476.63;4994635;28;20507;-84
2022/07/01 08:06:00;;;;;;;22.55;18.55;;;;;;;-148.88;97.46;75462.41;4992758;28;20045;-84
2022/07/01 08:08:27;;;;;;;19.80;16.83;;;;;;;-148.88;96.62;75458.34;4994197;28;20436;-83
2022/07/01 08:10:53;;;;;;;22.88;17.00;;;;;;;-148.88;96.29;75468.50;4995408;28;20023;-83
2022/07/01 08:13:18;;;;;;;21.55;17.48;;;;;;;-148.88;96.13;75488.81;4994374;28;20022;-83
2022/07/01 08:15:43;;;;;;;20.10;16.63;;;;;;;-148.88;96.16;75496.94;4995376;28;20064;-83
2022/07/01 08:18:09;;;;;;;21.13;16.30;;;;;;;-148.88;95.59;75509.13;4994318;28;20070;-84
2022/07/01 08:20:34;;;;;;;20.77;16.75;;;;;;;-148.88;95.96;75503.03;4994186;28;20014;-83
2022/07/01 08:23:00;;;;;;;21.17;16.15;;;;;;;-148.88;95.74;75505.06;4994069;28;20022;-82
2022/07/01 08:25:25;;;;;;;20.98;16.20;;;;;;;-148.88;95.04;75486.78;4994001;28;20030;-83
2022/07/01 08:27:50;;;;;;;19.25;16.35;;;;;;;-148.88;94.96;75488.81;4976213;28;20395;-83
2022/07/01 08:30:16;;;;;;;19.30;15.25;;;;;;;-148.88;95.08;75496.94;4993626;28;20393;-83
2022/07/01 08:32:41;;;;;;;17.90;14.30;;;;;;;-148.88;93.60;75494.91;4993948;28;20081;-83
2022/07/01 08:35:07;;;;;;;17.88;14.43;;;;;;;-148.88;93.63;75501.00;4979522;28;20061;-83
2022/07/01 08:37:32;;;;;;;20.08;14.68;;;;;;;-148.88;93.16;75505.06;4997019;28;20022;-82
2022/07/01 08:39:59;;;;;;;16.92;13.82;;;;;;;-148.88;93.11;75525.38;4997239;28;20018;-83
2022/07/01 08:42:24;;;;;;;17.00;14.30;;;;;;;-148.88;93.67;75517.25;4979400;28;20507;-82
2022/07/01 08:44:49;;;;;;;17.50;14.27;;;;;;;-148.88;93.03;75505.06;4996865;28;20058;-83
2022/07/01 08:47:15;;;;;;;17.15;14.13;;;;;;;-148.88;92.11;75517.25;4996676;28;20033;-83
2022/07/01 08:49:41;;;;;;;14.68;12.85;;;;;;;-148.88;92.63;75501.00;4996729;28;20029;-83
2022/07/01 08:52:09;;;;;;;16.48;12.30;;;;;;;-148.88;90.83;75488.81;4996787;28;20491;-83
2022/07/01 08:54:34;;;;;;;17.92;12.43;;;;;;;-148.88;91.57;75484.75;4996784;28;20030;-82
2022/07/01 08:56:59;;;;;;;16.40;14.00;;;;;;;-148.88;91.95;75484.75;4997067;28;20029;-83
2022/07/01 08:59:26;;;;;;;18.45;12.93;;;;;;;-148.88;91.84;75503.03;4995621;28;20069;-83
2022/07/01 09:02:20;;;;;;;16.20;12.43;;;;;;;-148.88;91.41;75509.13;4997117;28;20025;-83
2022/07/01 09:04:51;;;;;;;15.15;12.15;;;;;;;-148.88;91.35;75505.06;4989167;28;20570;-83
2022/07/01 09:07:17;;;;;;;19.30;13.70;;;;;;;-148.88;92.92;75501.00;4996406;28;20030;-83
2022/07/01 09:09:42;;;;;;;17.58;13.23;;;;;;;-148.88;92.92;75503.03;4996483;28;20045;-83
2022/07/01 09:12:08;;;;;;;16.77;13.73;;;;;;;-148.88;92.91;75509.13;4996931;28;20459;-83
2022/07/01 09:14:35;;;;;;;18.73;13.30;;;;;;;-148.88;93.48;75505.06;4978946;28;20034;-84
2022/07/01 09:17:06;;;;;;;16.27;13.35;;;;;;;-148.88;91.95;75517.25;4996535;28;20053;-83
2022/07/01 09:19:36;;;;;;;15.45;12.40;;;;;;;-148.88;90.05;75513.19;4994673;28;20096;-83
2022/07/01 09:22:04;;;;;;;15.90;12.85;;;;;;;-148.88;91.20;75521.31;4978562;28;20025;-83
2022/07/01 09:24:38;;;;;;;16.33;12.27;;;;;;;-148.88;90.63;75525.38;4996181;28;20022;-83
2022/07/01 09:27:09;;;;;;;14.85;11.77;;;;;;;-148.88;89.97;75517.25;4994742;28;20037;-83
2022/07/01 09:29:36;;;;;;;15.20;11.80;;;;;;;-148.88;89.75;75511.16;4978538;28;20436;-82
2022/07/01 09:32:04;;;;;;;14.90;12.35;;;;;;;-148.88;90.40;75492.88;4996196;28;20034;-82
2022/07/01 09:34:34;;;;;;;18.25;11.25;;;;;;;-148.88;91.51;75476.63;4995888;28;20030;-83
2022/07/01 09:36:59;;;;;;;15.48;11.90;;;;;;;-148.88;89.28;75484.75;4996020;28;20022;-83
2022/07/01 09:39:25;;;;;;;14.98;10.93;;;;;;;-148.88;87.71;75480.69;4978928;28;20378;-82
2022/07/01 09:41:54;;;;;;;12.30;10.13;;;;;;;-148.88;85.56;75464.44;4996214;28;20030;-82
2022/07/01 09:44:20;;;;;;;17.83;10.27;;;;;;;-148.88;83.85;75468.50;4995084;28;20160;-83
2022/07/01 09:46:56;;;;;;;12.65;10.02;;;;;;;-148.88;84.18;75458.34;4995655;28;20061;-82
2022/07/01 09:49:23;;;;;;;12.07;9.70;;;;;;;-148.88;85.09;75433.97;4996124;28;20026;-82
2022/07/01 09:51:50;;;;;;;14.38;9.65;;;;;;;-148.88;84.07;75423.81;4995751;28;20102;-82
2022/07/01 09:54:16;;;;;;;12.27;9.73;;;;;;;-148.88;83.26;75395.38;4995635;28;20030;-82
2022/07/01 09:56:41;;;;;;;11.98;9.70;;;;;;;-148.88;84.36;75375.06;4995389;28;20029;-81
2022/07/01 09:59:06;;;;;;;13.70;8.95;;;;;;;-148.88;79.90;75356.78;4995774;28;20109;-83
2022/07/01 10:01:32;;;;;;;11.57;9.55;;;;;;;-148.88;80.21;75346.63;4995939;28;20109;-82
2022/07/01 10:04:00;;;;;;;11.43;8.63;;;;;;;-148.88;79.62;75289.75;4995359;28;20022;-82
2022/07/01 10:06:43;;;;;;;11.95;9.00;;;;;;;-148.88;76.95;75293.81;4995803;28;20030;-81
2022/07/01 10:09:22;;;;;;;11.00;8.25;;;;;;;-148.88;76.72;75285.69;4994968;28;20475;-82
2022/07/01 10:12:18;;;;;;;10.18;7.95;;;;;;;-148.88;76.21;75269.47;4977946;28;20030;-82
2022/07/01 10:14:43;;;;;;;9.98;8.13;;;;;;;-148.88;77.15;75257.28;4977634;28;20432;-82
2022/07/01 10:17:09;;;;;;;10.05;7.70;;;;;;;-148.88;74.08;75267.44;4977761;28;20018;-82
2022/07/01 10:19:34;;;;;;;9.90;6.93;;;;;;;-148.88;73.17;75275.56;4977640;28;20022;-82
2022/07/01 10:22:21;;;;;;;9.25;6.68;;;;;;;-148.88;72.35;75257.28;4995341;28;20057;-81
2022/07/01 10:24:46;;;;;;;8.40;6.03;;;;;;;-148.88;72.57;75241.03;4977783;28;20121;-82
2022/07/01 10:27:21;;;;;;;10.02;7.10;;;;;;;-148.88;71.63;75232.91;4995429;28;20102;-82
2022/07/01 10:29:46;;;;;;;10.75;6.30;;;;;;;-148.88;70.75;75241.03;4979302;28;20030;-81
2022/07/01 10:32:20;;;;;;;7.78;5.72;;;;;;;-148.88;69.99;75234.94;4977496;28;20485;-82
2022/07/01 10:34:46;;;;;;;7.47;5.28;;;;;;;-148.88;70.11;75241.03;4978068;28;20118;-82
2022/07/01 10:37:12;;;;;;;10.60;5.60;;;;;;;-148.88;67.78;75251.19;4995517;28;20445;-81
2022/07/01 10:40:00;;;;;;;11.07;5.22;;;;;;;-148.88;68.83;75245.09;4994843;28;20022;-81
2022/07/01 10:42:52;;;;;;;7.43;4.82;;;;;;;-148.88;67.31;75245.09;4977887;28;20026;-81
2022/07/01 10:45:17;;;;;;;11.20;5.43;;;;;;;-148.88;68.44;75206.50;4992861;28;20437;-81
2022/07/01 10:47:43;;;;;;;7.93;5.20;;;;;;;-148.88;66.65;75216.66;4978268;28;20038;-82
2022/07/01 10:50:11;;;;;;;7.13;4.95;;;;;;;-148.88;67.08;75192.28;4993786;28;20500;-82
2022/07/01 10:52:36;;;;;;;7.22;4.72;;;;;;;-148.88;68.05;75171.97;4994908;28;20030;-82
2022/07/01 10:55:05;;;;;;;6.43;5.15;;;;;;;-148.88;67.41;75139.47;4993361;28;20018;-82
2022/07/01 10:57:34;;;;;;;6.35;4.90;;;;;;;-148.88;64.01;75171.97;4978519;28;20031;-82
2022/07/01 10:59:59;;;;;;;5.97;4.50;;;;;;;-148.88;64.17;75163.84;4994991;28;20081;-82
2022/07/01 11:02:31;;;;;;;7.30;4.40;;;;;;;-148.88;64.92;75131.34;4997075;28;20026;-82
2022/07/01 11:05:07;;;;;;;6.30;4.13;;;;;;;-148.88;64.50;75163.84;4978269;28;20081;-81
2022/07/01 11:07:35;;;;;;;6.05;3.80;;;;;;;-148.88;63.65;75188.22;4995730;28;20026;-81
2022/07/01 11:10:06;;;;;;;7.57;4.28;;;;;;;-148.88;63.92;75200.41;4994324;28;20113;-81
2022/07/01 11:12:32;;;;;;;5.47;3.90;;;;;;;-148.88;64.80;75190.25;4979071;28;20026;-82